Time;durP1;ratioP1;P1;durP2;ratioP2;P2;SDS_P1;SDS_P2;PMS_P1;PMS_P2;Temp;Humidity;BMP_temperature;BMP_pressure;BME280_temperature;BME280_humidity;BME280_pressure;Samples;Min_cycle;Max_cycle;Signal;HPM_P1;HPM_P2
2021/01/14 00:00:34;;;;;;;1.47;0.50;;;;;;;2.23;100.00;95784.94;5059458;28;20207;-71
2021/01/14 00:03:00;;;;;;;1.03;0.50;;;;;;;2.29;100.00;95778.38;5059332;28;20200;-71
2021/01/14 00:05:26;;;;;;;1.40;0.70;;;;;;;2.28;100.00;95802.72;5058564;28;20285;-71
2021/01/14 00:07:53;;;;;;;3.27;2.33;;;;;;;2.19;100.00;95803.53;5058474;28;20309;-71
2021/01/14 00:10:20;;;;;;;3.17;2.00;;;;;;;2.10;100.00;95806.94;5058861;28;20212;-71
2021/01/14 00:12:48;;;;;;;5.10;2.97;;;;;;;1.93;100.00;95816.25;5058432;28;20211;-71
2021/01/14 00:15:16;;;;;;;5.90;3.33;;;;;;;1.94;100.00;95832.66;5058894;28;20213;-71
2021/01/14 00:17:42;;;;;;;7.73;2.17;;;;;;;1.96;100.00;95825.53;5059175;28;20215;-71
2021/01/14 00:20:11;;;;;;;3.23;2.00;;;;;;;1.99;100.00;95814.91;5058704;28;20630;-71
2021/01/14 00:22:37;;;;;;;3.07;1.47;;;;;;;2.02;100.00;95822.41;5058650;28;20746;-71
2021/01/14 00:25:05;;;;;;;3.23;1.23;;;;;;;2.13;100.00;95820.50;5057951;28;20228;-71
2021/01/14 00:27:31;;;;;;;0.80;0.60;;;;;;;2.17;100.00;95824.47;5058716;28;20645;-71
2021/01/14 00:29:58;;;;;;;0.93;0.63;;;;;;;2.18;100.00;95817.50;5058613;28;20223;-71
2021/01/14 00:32:24;;;;;;;2.40;0.60;;;;;;;2.14;100.00;95832.53;5058827;28;21173;-71
2021/01/14 00:34:50;;;;;;;1.30;0.90;;;;;;;2.08;100.00;95827.06;5058552;28;20230;-71
2021/01/14 00:40:01;;;;;;;3.83;1.63;;;;;;;1.95;100.00;95840.31;5058138;28;20227;-71
2021/01/14 00:42:27;;;;;;;6.30;2.93;;;;;;;1.82;100.00;95823.38;5058573;28;20202;-72
2021/01/14 00:44:53;;;;;;;6.80;3.10;;;;;;;1.75;100.00;95840.41;5058812;28;20232;-72
2021/01/14 00:47:20;;;;;;;5.93;2.83;;;;;;;1.79;100.00;95846.97;5058163;28;20342;-72
2021/01/14 00:49:46;;;;;;;5.20;3.03;;;;;;;1.71;100.00;95838.25;5058174;28;20213;-71
2021/01/14 00:52:12;;;;;;;9.07;4.13;;;;;;;1.71;100.00;95843.44;5058165;28;20201;-71
2021/01/14 00:54:39;;;;;;;7.50;3.33;;;;;;;1.74;100.00;95838.78;5058177;28;20317;-71
2021/01/14 00:57:07;;;;;;;5.40;3.07;;;;;;;1.78;100.00;95850.53;5057609;28;20197;-71
2021/01/14 00:59:32;;;;;;;8.03;4.03;;;;;;;1.71;100.00;95849.44;5058293;28;20204;-71
2021/01/14 01:01:58;;;;;;;7.23;3.43;;;;;;;1.74;100.00;95858.75;5058164;28;20204;-71
2021/01/14 01:04:25;;;;;;;8.17;3.73;;;;;;;1.67;100.00;95848.06;5058074;28;20820;-72
2021/01/14 01:06:51;;;;;;;5.30;3.27;;;;;;;1.64;100.00;95848.31;5057186;28;20266;-72
2021/01/14 01:09:20;;;;;;;6.03;3.90;;;;;;;1.65;100.00;95862.94;5058238;28;20578;-72
2021/01/14 01:11:46;;;;;;;7.07;4.07;;;;;;;1.66;100.00;95851.59;5058042;28;20229;-72
2021/01/14 01:14:12;;;;;;;7.73;4.60;;;;;;;1.64;100.00;95856.09;5057635;28;20216;-71
2021/01/14 01:16:38;;;;;;;6.37;3.23;;;;;;;1.69;100.00;95872.09;5057890;28;20215;-71
2021/01/14 01:19:04;;;;;;;8.50;4.60;;;;;;;1.60;100.00;95867.69;5057802;28;20290;-71
2021/01/14 01:21:31;;;;;;;7.53;4.30;;;;;;;1.63;100.00;95866.63;5057137;28;21110;-71
2021/01/14 01:23:57;;;;;;;4.27;2.37;;;;;;;1.83;100.00;95874.31;5057963;28;20202;-71
2021/01/14 01:26:23;;;;;;;5.23;4.00;;;;;;;1.90;100.00;95876.25;5057167;28;20318;-71
2021/01/14 01:28:49;;;;;;;3.17;2.40;;;;;;;1.94;100.00;95880.22;5057185;28;20262;-71
2021/01/14 01:31:15;;;;;;;3.33;2.57;;;;;;;1.94;100.00;95876.81;5057850;28;20206;-71
2021/01/14 01:33:43;;;;;;;2.83;1.90;;;;;;;2.05;100.00;95864.53;5057437;28;20221;-71
2021/01/14 01:36:12;;;;;;;4.40;2.50;;;;;;;2.16;100.00;95869.59;5056207;28;20266;-71
2021/01/14 01:38:38;;;;;;;4.83;2.60;;;;;;;2.16;100.00;95856.59;5057525;28;20227;-71
2021/01/14 01:41:05;;;;;;;3.07;2.33;;;;;;;2.22;100.00;95876.06;5057347;28;20212;-71
2021/01/14 01:43:31;;;;;;;2.90;2.23;;;;;;;2.30;100.00;95884.78;5056933;28;20207;-71
2021/01/14 01:45:58;;;;;;;2.63;1.73;;;;;;;2.28;100.00;95884.13;5056472;28;20263;-71
2021/01/14 01:48:24;;;;;;;4.40;2.93;;;;;;;2.22;100.00;95886.44;5057219;28;20233;-71
2021/01/14 01:50:55;;;;;;;4.60;2.73;;;;;;;2.18;100.00;95880.69;5056470;28;20209;-71
2021/01/14 01:53:22;;;;;;;3.73;2.07;;;;;;;2.20;100.00;95864.94;5056714;28;20686;-71
2021/01/14 01:55:49;;;;;;;1.77;1.33;;;;;;;2.32;100.00;95867.28;5056371;28;20631;-71
2021/01/14 01:58:20;;;;;;;3.57;2.37;;;;;;;2.29;100.00;95884.94;5056744;28;20824;-71
2021/01/14 02:00:46;;;;;;;4.40;2.57;;;;;;;2.28;100.00;95872.88;5056693;28;20218;-72
2021/01/14 02:03:12;;;;;;;2.67;1.97;;;;;;;2.29;100.00;95869.34;5056816;28;20231;-71
2021/01/14 02:05:38;;;;;;;4.43;2.57;;;;;;;2.24;100.00;95863.72;5056444;28;20698;-72
2021/01/14 02:08:13;;;;;;;3.17;1.90;;;;;;;2.23;100.00;95873.31;5056426;28;20342;-72
2021/01/14 02:10:44;;;;;;;6.63;2.70;;;;;;;2.18;100.00;95885.88;5056953;28;20276;-72
2021/01/14 02:13:22;;;;;;;3.43;2.57;;;;;;;2.13;100.00;95888.06;5057141;28;20200;-72
2021/01/14 02:15:51;;;;;;;3.60;2.60;;;;;;;2.17;100.00;95876.44;5055897;28;20230;-72
2021/01/14 02:18:19;;;;;;;3.90;2.23;;;;;;;2.21;100.00;95870.00;5057435;28;20207;-72
2021/01/14 02:20:49;;;;;;;6.07;1.90;;;;;;;2.22;100.00;95874.25;5056820;28;20201;-72
2021/01/14 02:23:21;;;;;;;3.47;1.93;;;;;;;2.18;100.00;95885.88;5056364;28;20697;-72
2021/01/14 02:26:05;;;;;;;3.13;1.67;;;;;;;2.24;100.00;95889.72;5056272;28;20220;-72
2021/01/14 02:28:33;;;;;;;4.37;2.80;;;;;;;2.17;100.00;95901.63;5057010;28;20223;-72
2021/01/14 02:31:00;;;;;;;6.83;3.20;;;;;;;2.17;100.00;95899.03;5055650;28;20683;-72
2021/01/14 02:33:26;;;;;;;3.43;2.13;;;;;;;2.16;100.00;95895.59;5056845;28;20254;-71
2021/01/14 02:35:52;;;;;;;5.87;2.97;;;;;;;2.16;100.00;95898.19;5056553;28;20589;-72
2021/01/14 02:38:18;;;;;;;6.03;2.77;;;;;;;2.18;100.00;95905.88;5056646;28;20204;-72
2021/01/14 02:40:44;;;;;;;4.67;2.53;;;;;;;2.17;100.00;95899.03;5055974;28;20247;-71
2021/01/14 02:43:11;;;;;;;4.13;2.40;;;;;;;2.14;100.00;95914.88;5056722;28;20204;-71
2021/01/14 02:45:37;;;;;;;4.03;2.60;;;;;;;2.12;100.00;95922.00;5055873;28;20605;-72
2021/01/14 02:48:05;;;;;;;5.30;2.90;;;;;;;2.05;100.00;95900.91;5056369;28;20223;-72
2021/01/14 02:50:34;;;;;;;3.97;2.00;;;;;;;2.10;100.00;95903.09;5056070;28;20737;-72
2021/01/14 02:53:03;;;;;;;4.93;2.60;;;;;;;2.06;100.00;95917.31;5056175;28;20738;-72
2021/01/14 02:55:30;;;;;;;3.37;1.80;;;;;;;2.13;100.00;95918.44;5055442;28;20253;-71
2021/01/14 02:57:56;;;;;;;4.83;1.77;;;;;;;2.13;100.00;95923.63;5056938;28;20196;-72
2021/01/14 03:00:23;;;;;;;3.27;2.23;;;;;;;2.14;100.00;95914.88;5056191;28;20205;-72
2021/01/14 03:02:49;;;;;;;4.67;2.00;;;;;;;2.13;100.00;95926.25;5055552;28;20986;-72
2021/01/14 03:05:56;;;;;;;2.67;1.30;;;;;;;2.15;100.00;95929.50;5055125;28;20273;-72
2021/01/14 03:08:22;;;;;;;5.17;1.77;;;;;;;2.21;100.00;95934.19;5053874;28;20219;-71
2021/01/14 03:10:48;;;;;;;4.73;2.40;;;;;;;2.15;100.00;95919.13;5056399;28;20297;-72
2021/01/14 03:13:14;;;;;;;2.47;1.87;;;;;;;2.12;100.00;95922.81;5056275;28;20211;-72
2021/01/14 03:15:41;;;;;;;5.23;2.60;;;;;;;2.12;100.00;95937.59;5055587;28;20315;-72
2021/01/14 03:18:10;;;;;;;6.27;2.60;;;;;;;2.09;100.00;95946.47;5055985;28;20205;-72
2021/01/14 03:20:36;;;;;;;6.07;2.67;;;;;;;2.07;100.00;95944.94;5056167;28;20203;-72
2021/01/14 03:23:02;;;;;;;9.17;2.50;;;;;;;2.03;100.00;95943.56;5055948;28;20268;-72
2021/01/14 03:25:28;;;;;;;5.87;2.30;;;;;;;2.03;100.00;95939.19;5055357;28;20599;-72
2021/01/14 03:27:54;;;;;;;7.97;2.83;;;;;;;2.04;100.00;95940.84;5056203;28;20282;-72
2021/01/14 03:30:21;;;;;;;4.13;1.60;;;;;;;2.04;100.00;95934.84;5056405;28;20204;-72
2021/01/14 03:32:47;;;;;;;6.47;2.30;;;;;;;2.00;100.00;95933.47;5055975;28;20204;-72
2021/01/14 03:35:14;;;;;;;5.37;2.63;;;;;;;1.97;100.00;95931.09;5054700;28;20267;-72
2021/01/14 03:37:43;;;;;;;3.63;2.13;;;;;;;1.92;100.00;95944.50;5056809;28;20266;-72
2021/01/14 03:40:10;;;;;;;5.40;3.27;;;;;;;1.83;100.00;95934.91;5056199;28;20219;-72
2021/01/14 03:42:37;;;;;;;11.40;3.93;;;;;;;1.80;100.00;95950.75;5057925;28;20203;-72
2021/01/14 03:45:05;;;;;;;2.47;1.53;;;;;;;1.77;100.00;95947.59;5058546;28;20224;-71
2021/01/14 03:47:31;;;;;;;5.97;2.70;;;;;;;1.73;100.00;95946.19;5059545;28;20228;-72
2021/01/14 03:49:58;;;;;;;5.10;2.03;;;;;;;1.72;100.00;95938.53;5059588;28;20196;-72
2021/01/14 03:52:24;;;;;;;3.87;2.00;;;;;;;1.75;100.00;95951.28;5059294;28;20668;-72
2021/01/14 03:54:49;;;;;;;7.60;2.47;;;;;;;1.73;100.00;95950.56;5058989;28;20225;-72
2021/01/14 03:57:15;;;;;;;4.33;2.37;;;;;;;1.69;100.00;95957.81;5058769;28;20224;-72
2021/01/14 03:59:43;;;;;;;8.03;3.40;;;;;;;1.66;100.00;95955.47;5058835;28;20205;-71
2021/01/14 04:02:09;;;;;;;9.77;2.97;;;;;;;1.63;100.00;95950.56;5059332;28;20212;-72
2021/01/14 04:04:37;;;;;;;5.10;2.83;;;;;;;1.60;100.00;95950.78;5058853;28;20228;-72
2021/01/14 04:07:06;;;;;;;11.00;3.60;;;;;;;1.57;100.00;95952.84;5058378;28;20228;-72
2021/01/14 04:09:32;;;;;;;6.43;3.23;;;;;;;1.50;100.00;95954.31;5059263;28;20237;-72
2021/01/14 04:11:58;;;;;;;7.97;3.40;;;;;;;1.49;100.00;95961.28;5059247;28;20732;-72
2021/01/14 04:14:24;;;;;;;8.90;3.80;;;;;;;1.48;100.00;95967.41;5058779;28;20219;-72
2021/01/14 04:16:50;;;;;;;10.23;3.00;;;;;;;1.47;100.00;95963.16;5058230;28;20199;-72
2021/01/14 04:19:17;;;;;;;7.57;2.93;;;;;;;1.49;100.00;95966.47;5058718;28;20202;-72
2021/01/14 04:21:43;;;;;;;8.63;3.87;;;;;;;1.47;100.00;95968.38;5059323;28;20201;-72
2021/01/14 04:24:10;;;;;;;10.10;4.40;;;;;;;1.47;100.00;95964.94;5059009;28;20271;-72
2021/01/14 04:26:37;;;;;;;9.20;4.13;;;;;;;1.45;100.00;95967.69;5057813;28;20224;-72
2021/01/14 04:29:03;;;;;;;3.07;1.90;;;;;;;1.45;100.00;95972.88;5058664;28;20202;-72
2021/01/14 04:31:29;;;;;;;9.23;5.43;;;;;;;1.45;100.00;95988.44;5058592;28;20628;-72
2021/01/14 04:33:55;;;;;;;12.40;5.77;;;;;;;1.41;100.00;96002.63;5058875;28;20204;-72
2021/01/14 04:36:21;;;;;;;10.70;4.57;;;;;;;1.40;100.00;95998.41;5058248;28;20223;-72
2021/01/14 04:38:47;;;;;;;9.37;5.17;;;;;;;1.38;100.00;95996.88;5058060;28;20194;-72
2021/01/14 04:41:17;;;;;;;12.23;4.77;;;;;;;1.37;100.00;96003.00;5058771;28;20203;-72
2021/01/14 04:43:44;;;;;;;9.30;4.30;;;;;;;1.35;100.00;96008.34;5058768;28;20200;-72
2021/01/14 04:46:12;;;;;;;10.70;5.30;;;;;;;1.35;100.00;96008.34;5057617;28;20230;-72
2021/01/14 04:48:40;;;;;;;11.80;5.60;;;;;;;1.34;100.00;96011.88;5057654;28;20269;-72
2021/01/14 04:51:08;;;;;;;13.83;5.80;;;;;;;1.30;100.00;96013.06;5058830;28;21256;-72
2021/01/14 04:53:35;;;;;;;9.60;5.23;;;;;;;1.31;100.00;96022.53;5057885;28;20210;-72
2021/01/14 04:56:04;;;;;;;14.27;6.20;;;;;;;1.28;100.00;96017.56;5057644;28;20229;-72
2021/01/14 04:58:31;;;;;;;14.87;5.73;;;;;;;1.27;100.00;96036.69;5058028;28;20213;-72
2021/01/14 05:00:58;;;;;;;19.23;6.87;;;;;;;1.27;100.00;96031.50;5058293;28;20617;-72
2021/01/14 05:03:27;;;;;;;12.80;6.63;;;;;;;1.29;100.00;96034.78;5057617;28;20203;-72
2021/01/14 05:05:54;;;;;;;21.20;8.20;;;;;;;1.25;100.00;96030.81;5057435;28;20225;-72
2021/01/14 05:08:28;;;;;;;5.83;3.60;;;;;;;1.29;100.00;96023.59;5057712;28;20231;-72
2021/01/14 05:10:54;;;;;;;10.50;5.13;;;;;;;1.22;100.00;96025.88;5057943;28;20204;-72
2021/01/14 05:13:21;;;;;;;15.63;5.53;;;;;;;1.24;100.00;96036.94;5058032;28;20252;-72
2021/01/14 05:15:48;;;;;;;14.07;5.77;;;;;;;1.22;100.00;96032.81;5056958;28;20230;-72
2021/01/14 05:18:14;;;;;;;11.80;5.63;;;;;;;1.18;100.00;96025.41;5057707;28;20199;-71
2021/01/14 05:20:41;;;;;;;14.87;6.57;;;;;;;1.13;100.00;96018.00;5057635;28;20212;-71
2021/01/14 05:23:07;;;;;;;14.23;6.17;;;;;;;1.10;100.00;96017.44;5057360;28;20207;-71
2021/01/14 05:25:34;;;;;;;16.60;7.87;;;;;;;1.15;100.00;96020.50;5057048;28;20217;-71
2021/01/14 05:28:11;;;;;;;11.60;5.57;;;;;;;1.21;100.00;96013.03;5057604;28;20218;-71
2021/01/14 05:30:37;;;;;;;16.03;8.20;;;;;;;1.14;100.00;96011.06;5057141;28;21102;-71
2021/01/14 05:33:11;;;;;;;12.37;6.97;;;;;;;1.19;100.00;96016.69;5057104;28;20206;-71
2021/01/14 05:35:47;;;;;;;16.97;7.87;;;;;;;1.23;100.00;96009.34;5057019;28;20227;-71
2021/01/14 05:38:20;;;;;;;16.93;7.13;;;;;;;1.32;100.00;96024.16;5057480;28;20246;-71
2021/01/14 05:41:10;;;;;;;21.30;7.77;;;;;;;1.31;100.00;96019.91;5057205;28;20211;-71
2021/01/14 05:43:32;;;;;;;13.93;7.27;;;;;;;1.33;100.00;96023.19;5057067;28;20702;-71
2021/01/14 05:46:14;;;;;;;12.17;5.97;;;;;;;1.31;100.00;96026.88;5056257;28;20231;-71
2021/01/14 05:48:43;;;;;;;10.53;4.90;;;;;;;1.30;100.00;96036.44;5056886;28;20228;-72
2021/01/14 05:51:15;;;;;;;15.47;6.77;;;;;;;1.29;100.00;96047.75;5057578;28;20213;-71
2021/01/14 05:53:53;;;;;;;10.37;5.40;;;;;;;1.28;100.00;96053.88;5057271;28;20211;-71
2021/01/14 05:56:25;;;;;;;10.17;5.57;;;;;;;1.26;100.00;96061.00;5056858;28;20227;-71
2021/01/14 05:58:53;;;;;;;9.47;5.80;;;;;;;1.25;100.00;96069.72;5057431;28;20204;-71
2021/01/14 06:01:19;;;;;;;14.90;6.20;;;;;;;1.21;100.00;96073.53;5056843;28;20215;-72
2021/01/14 06:03:46;;;;;;;13.27;6.13;;;;;;;1.13;100.00;96085.47;5057019;28;20567;-72
2021/01/14 06:06:15;;;;;;;13.33;7.17;;;;;;;1.14;100.00;96083.72;5055234;28;20228;-72
2021/01/14 06:08:41;;;;;;;16.80;8.20;;;;;;;1.11;100.00;96076.16;5056457;28;20224;-71
2021/01/14 06:11:19;;;;;;;17.03;7.40;;;;;;;1.13;100.00;96074.28;5056692;28;20196;-71
2021/01/14 06:13:45;;;;;;;13.77;7.07;;;;;;;1.09;100.00;96083.25;5056759;28;20202;-71
2021/01/14 06:16:11;;;;;;;15.27;7.53;;;;;;;1.08;100.00;96073.81;5056018;28;20358;-71
2021/01/14 06:18:37;;;;;;;17.20;7.37;;;;;;;1.10;100.00;96071.94;5056770;28;20200;-72
2021/01/14 06:21:04;;;;;;;12.77;7.53;;;;;;;1.11;100.00;96060.59;5056918;28;20196;-72
2021/01/14 06:23:44;;;;;;;12.07;6.53;;;;;;;1.12;100.00;96064.84;5056622;28;20203;-73
2021/01/14 06:26:10;;;;;;;13.40;7.33;;;;;;;1.07;100.00;96065.22;5055983;28;20215;-71
2021/01/14 06:28:37;;;;;;;14.77;8.00;;;;;;;1.07;100.00;96074.75;5056435;28;20873;-71
2021/01/14 06:31:07;;;;;;;13.80;7.20;;;;;;;1.16;100.00;96080.03;5056942;28;20206;-71
2021/01/14 06:33:34;;;;;;;13.70;7.93;;;;;;;1.21;100.00;96091.69;5056777;28;20200;-71
2021/01/14 06:36:06;;;;;;;16.77;7.47;;;;;;;1.16;100.00;96092.16;5056006;28;20226;-71
2021/01/14 06:38:42;;;;;;;15.33;7.43;;;;;;;1.14;100.00;96096.69;5056983;28;20205;-71
2021/01/14 06:41:14;;;;;;;18.53;6.90;;;;;;;1.14;100.00;96096.69;5056391;28;20275;-71
2021/01/14 06:43:42;;;;;;;18.93;8.27;;;;;;;1.18;100.00;96119.66;5056430;28;20205;-72
2021/01/14 06:46:15;;;;;;;13.63;7.07;;;;;;;1.17;100.00;96107.63;5055296;28;20224;-72
2021/01/14 06:48:49;;;;;;;19.23;7.87;;;;;;;1.16;100.00;96107.75;5056484;28;20231;-72
2021/01/14 06:51:23;;;;;;;13.60;7.40;;;;;;;1.15;100.00;96095.75;5055820;28;20200;-72
2021/01/14 06:53:51;;;;;;;16.53;7.13;;;;;;;1.15;100.00;96098.34;5057246;28;20254;-72
2021/01/14 06:56:22;;;;;;;12.67;5.10;;;;;;;1.17;100.00;96104.22;5055342;28;20218;-72
2021/01/14 06:58:51;;;;;;;18.70;8.27;;;;;;;1.18;100.00;96108.47;5055942;28;20192;-72
2021/01/14 07:01:18;;;;;;;12.13;5.33;;;;;;;1.21;100.00;96120.22;5056494;28;20205;-71
2021/01/14 07:03:56;;;;;;;27.77;5.83;;;;;;;1.19;100.00;96127.31;5056843;28;20211;-71
2021/01/14 07:06:27;;;;;;;12.40;4.40;;;;;;;1.23;100.00;96153.84;5055657;28;20228;-71
2021/01/14 07:09:04;;;;;;;10.07;5.53;;;;;;;1.17;100.00;96154.31;5056194;28;20222;-71
2021/01/14 07:11:34;;;;;;;9.53;4.40;;;;;;;1.15;100.00;96145.03;5056969;28;20202;-71
2021/01/14 07:14:12;;;;;;;7.87;4.37;;;;;;;1.18;100.00;96144.78;5056438;28;20208;-71
2021/01/14 07:16:41;;;;;;;10.45;5.82;;;;;;;1.19;100.00;96130.88;5055619;28;20913;-71
2021/01/14 07:19:07;;;;;;;8.53;4.40;;;;;;;1.22;100.00;96127.06;5060303;28;20204;-71
2021/01/14 07:21:36;;;;;;;7.20;3.97;;;;;;;1.22;100.00;96137.44;5060597;28;20209;-71
2021/01/14 07:24:09;;;;;;;10.97;5.40;;;;;;;1.22;100.00;96132.25;5060827;28;20202;-71
2021/01/14 07:26:39;;;;;;;7.03;3.50;;;;;;;1.21;100.00;96135.81;5059982;28;20235;-71
2021/01/14 07:29:05;;;;;;;14.23;5.67;;;;;;;1.21;100.00;96135.81;5059906;28;21147;-71
2021/01/14 07:31:31;;;;;;;11.57;6.23;;;;;;;1.19;100.00;96153.25;5060199;28;20200;-71
2021/01/14 07:34:17;;;;;;;14.20;6.37;;;;;;;1.19;100.00;96157.63;5060312;28;20202;-72
2021/01/14 07:36:44;;;;;;;11.77;5.33;;;;;;;1.09;100.00;96167.09;5059717;28;20266;-71
2021/01/14 07:39:10;;;;;;;9.50;4.73;;;;;;;1.09;100.00;96161.91;5060228;28;20219;-72
2021/01/14 07:41:55;;;;;;;12.13;5.57;;;;;;;1.05;100.00;96175.25;5060130;28;20736;-72
2021/01/14 07:44:21;;;;;;;13.00;5.50;;;;;;;1.03;100.00;96177.13;5059613;28;20812;-72
2021/01/14 07:46:50;;;;;;;10.40;6.20;;;;;;;0.99;100.00;96163.56;5060068;28;20201;-71
2021/01/14 07:49:26;;;;;;;12.43;5.63;;;;;;;1.06;100.00;96177.72;5059670;28;20200;-71
2021/01/14 07:51:54;;;;;;;9.17;3.37;;;;;;;1.08;100.00;96178.41;5060157;28;20206;-71
2021/01/14 07:54:21;;;;;;;8.70;3.90;;;;;;;1.12;100.00;96176.41;5056546;28;20206;-71
2021/01/14 07:56:51;;;;;;;12.57;5.50;;;;;;;1.11;100.00;96177.34;5058418;28;20212;-71
2021/01/14 07:59:27;;;;;;;8.57;4.27;;;;;;;1.06;100.00;96180.31;5058593;28;20297;-71
2021/01/14 08:02:00;;;;;;;9.77;4.77;;;;;;;1.06;100.00;96187.25;5059573;28;20201;-71
2021/01/14 08:04:27;;;;;;;11.47;5.10;;;;;;;1.09;100.00;96198.22;5059574;28;20207;-71
2021/01/14 08:06:54;;;;;;;10.30;5.23;;;;;;;1.11;100.00;96203.28;5058663;28;20204;-71
2021/01/14 08:09:20;;;;;;;14.33;6.10;;;;;;;1.12;100.00;96207.53;5059645;28;20215;-71
2021/01/14 08:11:57;;;;;;;13.50;6.40;;;;;;;1.10;100.00;96217.22;5059142;28;20280;-71
2021/01/14 08:14:35;;;;;;;13.57;5.67;;;;;;;1.13;100.00;96229.94;5058799;28;20666;-71
2021/01/14 08:17:01;;;;;;;15.43;6.47;;;;;;;1.13;100.00;96229.94;5058266;28;20201;-71
2021/01/14 08:19:33;;;;;;;9.47;4.40;;;;;;;1.18;100.00;96240.78;5059097;28;20198;-71
2021/01/14 08:22:09;;;;;;;9.93;5.43;;;;;;;1.17;100.00;96239.13;5059311;28;20204;-71
2021/01/14 08:24:54;;;;;;;12.53;6.20;;;;;;;1.15;100.00;96233.25;5059756;28;20906;-71
2021/01/14 08:27:29;;;;;;;17.83;7.13;;;;;;;1.18;100.00;96235.59;5057792;28;20232;-71
2021/01/14 08:29:57;;;;;;;12.83;4.67;;;;;;;1.17;100.00;96224.38;5058283;28;20288;-71
2021/01/14 08:32:42;;;;;;;11.00;5.80;;;;;;;1.16;100.00;96245.25;5059655;28;20209;-71
2021/01/14 08:35:17;;;;;;;10.40;5.23;;;;;;;1.16;100.00;96240.91;5057689;28;20274;-72
2021/01/14 08:37:47;;;;;;;13.07;6.47;;;;;;;1.15;100.00;96235.84;5059312;28;20198;-71
2021/01/14 08:40:16;;;;;;;20.50;8.80;;;;;;;1.15;100.00;96243.63;5059481;28;20208;-71
2021/01/14 08:42:43;;;;;;;23.00;9.63;;;;;;;1.18;100.00;96251.16;5058803;28;20204;-72
2021/01/14 08:45:13;;;;;;;19.97;8.83;;;;;;;1.22;100.00;96243.84;5057965;28;20230;-72
2021/01/14 08:48:10;;;;;;;22.37;8.23;;;;;;;1.20;100.00;96258.69;5058637;28;20225;-72
2021/01/14 08:50:45;;;;;;;21.60;9.43;;;;;;;1.25;100.00;96260.94;5057854;28;20213;-72
2021/01/14 08:53:22;;;;;;;11.03;6.27;;;;;;;1.24;100.00;96270.50;5058476;28;20206;-72
2021/01/14 08:55:52;;;;;;;22.03;9.50;;;;;;;1.32;100.00;96252.56;5057702;28;20291;-72
2021/01/14 08:58:19;;;;;;;20.53;8.67;;;;;;;1.27;100.00;96270.28;5058344;28;20192;-72
2021/01/14 09:00:47;;;;;;;14.37;6.20;;;;;;;1.29;100.00;96270.16;5057948;28;20208;-72
2021/01/14 09:03:13;;;;;;;9.50;4.70;;;;;;;1.28;100.00;96271.91;5058654;28;20675;-72
2021/01/14 09:05:44;;;;;;;14.20;5.97;;;;;;;1.30;100.00;96275.22;5058001;28;20230;-71
2021/01/14 09:08:10;;;;;;;22.07;9.13;;;;;;;1.28;100.00;96276.28;5057598;28;20252;-72
2021/01/14 09:10:46;;;;;;;21.07;6.83;;;;;;;1.27;100.00;96280.66;5057690;28;20324;-72
2021/01/14 09:13:13;;;;;;;11.77;5.10;;;;;;;1.28;100.00;96291.84;5058374;28;20214;-72
2021/01/14 09:15:39;;;;;;;33.70;9.53;;;;;;;1.26;100.00;96299.75;5056659;28;20764;-72
2021/01/14 09:18:05;;;;;;;23.63;7.67;;;;;;;1.28;100.00;96297.03;5057971;28;20193;-72
2021/01/14 09:20:31;;;;;;;16.57;7.30;;;;;;;1.27;100.00;96296.22;5058194;28;20205;-72
2021/01/14 09:23:20;;;;;;;22.97;9.43;;;;;;;1.29;100.00;96299.50;5057290;28;20197;-72
2021/01/14 09:25:48;;;;;;;14.37;6.90;;;;;;;1.29;100.00;96296.09;5056556;28;20220;-72
2021/01/14 09:28:15;;;;;;;13.80;7.23;;;;;;;1.26;100.00;96289.38;5057667;28;20256;-72
2021/01/14 09:30:42;;;;;;;18.57;7.07;;;;;;;1.29;100.00;96283.94;5057475;28;20252;-72
2021/01/14 09:33:08;;;;;;;19.33;6.90;;;;;;;1.30;100.00;96293.38;5057281;28;20257;-72
2021/01/14 09:35:34;;;;;;;17.77;7.80;;;;;;;1.36;100.00;96299.84;5057419;28;20224;-72
2021/01/14 09:38:00;;;;;;;17.47;6.70;;;;;;;1.36;100.00;96305.03;5057417;28;20933;-72
2021/01/14 09:40:26;;;;;;;18.57;6.23;;;;;;;1.31;100.00;96299.38;5056756;28;20218;-72
2021/01/14 09:42:53;;;;;;;26.60;9.20;;;;;;;1.31;100.00;96308.00;5057761;28;20200;-72
2021/01/14 09:45:21;;;;;;;35.93;11.77;;;;;;;1.33;100.00;96306.09;5056888;28;20233;-72
2021/01/14 09:47:51;;;;;;;21.87;8.90;;;;;;;1.34;100.00;96320.75;5056641;28;20225;-72
2021/01/14 09:50:18;;;;;;;21.23;8.30;;;;;;;1.41;100.00;96314.16;5056978;28;20230;-72
2021/01/14 09:52:45;;;;;;;26.90;9.60;;;;;;;1.40;100.00;96322.88;5056984;28;20674;-72
2021/01/14 09:55:14;;;;;;;21.40;9.00;;;;;;;1.43;100.00;96327.00;5056443;28;20223;-72
2021/01/14 09:57:45;;;;;;;24.93;8.50;;;;;;;1.49;100.00;96332.53;5056767;28;20218;-72
2021/01/14 10:00:22;;;;;;;24.10;9.27;;;;;;;1.56;100.00;96320.72;5056635;28;20747;-72
2021/01/14 10:02:53;;;;;;;18.40;8.43;;;;;;;1.58;100.00;96337.00;5056415;28;20239;-72
2021/01/14 10:05:21;;;;;;;13.40;6.87;;;;;;;1.57;100.00;96327.56;5056833;28;20277;-72
2021/01/14 10:07:50;;;;;;;12.83;7.10;;;;;;;1.57;100.00;96324.16;5056709;28;20715;-72
2021/01/14 10:10:17;;;;;;;12.70;7.00;;;;;;;1.57;100.00;96322.38;5056624;28;20218;-72
2021/01/14 10:12:43;;;;;;;19.80;8.37;;;;;;;1.57;100.00;96326.75;5057028;28;20204;-72
2021/01/14 10:15:11;;;;;;;12.57;6.53;;;;;;;1.58;100.00;96326.63;5056278;28;20251;-72
2021/01/14 10:17:39;;;;;;;16.10;6.23;;;;;;;1.59;100.00;96328.28;5056623;28;20209;-71
2021/01/14 10:20:06;;;;;;;13.70;7.47;;;;;;;1.57;100.00;96330.16;5056645;28;20204;-71
2021/01/14 10:22:33;;;;;;;21.53;6.67;;;;;;;1.58;100.00;96341.34;5056626;28;20203;-71
2021/01/14 10:25:09;;;;;;;11.83;6.43;;;;;;;1.61;100.00;96341.94;5056034;28;21348;-71
2021/01/14 10:27:35;;;;;;;17.33;7.30;;;;;;;1.65;100.00;96335.56;5056204;28;20230;-72
2021/01/14 10:30:19;;;;;;;20.17;7.80;;;;;;;1.71;100.00;96339.47;5056566;28;20996;-72
2021/01/14 10:32:46;;;;;;;17.93;7.70;;;;;;;1.80;100.00;96347.34;5056814;28;20241;-72
2021/01/14 10:35:25;;;;;;;14.90;6.87;;;;;;;1.83;100.00;96347.94;5056040;28;20223;-72
2021/01/14 10:38:10;;;;;;;14.13;7.57;;;;;;;1.84;100.00;96341.75;5056241;28;20217;-72
2021/01/14 10:40:38;;;;;;;13.37;7.43;;;;;;;1.80;100.00;96348.16;5056413;28;20651;-72
2021/01/14 10:43:05;;;;;;;13.13;7.33;;;;;;;1.75;100.00;96346.88;5055715;28;20200;-71
2021/01/14 10:45:33;;;;;;;15.03;7.17;;;;;;;1.66;100.00;96350.19;5055316;28;20365;-72
2021/01/14 10:48:12;;;;;;;15.07;6.27;;;;;;;1.61;100.00;96352.34;5056398;28;20227;-72
2021/01/14 10:50:47;;;;;;;9.97;5.73;;;;;;;1.60;100.00;96348.06;5057173;28;20203;-72
2021/01/14 10:53:24;;;;;;;7.57;4.53;;;;;;;1.48;100.00;96345.63;5059548;28;20261;-71
2021/01/14 10:56:04;;;;;;;9.77;4.20;;;;;;;1.43;100.00;96350.38;5059242;28;20266;-72
2021/01/14 10:58:30;;;;;;;9.47;4.30;;;;;;;1.31;100.00;96349.53;5060056;28;20206;-71
2021/01/14 11:00:56;;;;;;;7.77;4.40;;;;;;;1.30;100.00;96352.25;5060896;28;20210;-71
2021/01/14 11:03:24;;;;;;;6.77;3.67;;;;;;;1.19;100.00;96355.66;5059982;28;20196;-71
2021/01/14 11:05:52;;;;;;;9.67;4.60;;;;;;;1.20;100.00;96362.50;5059482;28;20292;-71
2021/01/14 11:08:20;;;;;;;6.33;3.13;;;;;;;0.97;100.00;96364.38;5060333;28;20223;-71
2021/01/14 11:10:48;;;;;;;6.43;3.53;;;;;;;1.04;100.00;96371.56;5060361;28;20214;-71
2021/01/14 11:13:15;;;;;;;13.57;5.87;;;;;;;0.97;100.00;96370.41;5060289;28;20212;-71
2021/01/14 11:15:42;;;;;;;15.97;6.40;;;;;;;0.92;100.00;96371.72;5059151;28;20230;-71
2021/01/14 11:18:09;;;;;;;9.23;4.13;;;;;;;0.97;100.00;96377.34;5060166;28;20200;-71
2021/01/14 11:20:37;;;;;;;9.93;4.53;;;;;;;0.83;100.00;96362.03;5060298;28;20219;-71
2021/01/14 11:23:03;;;;;;;10.80;4.07;;;;;;;0.87;100.00;96374.63;5059580;28;20205;-71
2021/01/14 11:25:30;;;;;;;6.63;4.13;;;;;;;1.01;100.00;96371.00;5059028;28;20740;-71
2021/01/14 11:27:56;;;;;;;7.07;4.33;;;;;;;1.01;100.00;96373.59;5059740;28;20374;-74
2021/01/14 11:30:23;;;;;;;7.00;3.67;;;;;;;0.98;100.00;96374.66;5059920;28;20204;-73
2021/01/14 11:32:49;;;;;;;13.90;3.93;;;;;;;0.85;100.00;96378.28;5059538;28;20210;-73
2021/01/14 11:35:16;;;;;;;7.53;4.60;;;;;;;0.78;100.00;96361.53;5058143;28;20815;-72
2021/01/14 11:37:43;;;;;;;6.00;4.47;;;;;;;0.76;100.00;96379.81;5059526;28;20585;-72
2021/01/14 11:40:09;;;;;;;6.70;4.63;;;;;;;0.68;100.00;96373.53;5059991;28;20253;-72